sensor_id;sensor_type;location;lat;lon;timestamp;P1;durP1;ratioP1;P2;durP2;ratioP2
8500;SDS011;4288;48.484;10.024;2023-01-16T00:02:09;0.67;;;0.60;;
8500;SDS011;4288;48.484;10.024;2023-01-16T00:04:36;1.10;;;0.70;;
8500;SDS011;4288;48.484;10.024;2023-01-16T00:07:03;1.57;;;0.60;;
8500;SDS011;4288;48.484;10.024;2023-01-16T00:09:30;0.70;;;0.50;;
8500;SDS011;4288;48.484;10.024;2023-01-16T00:11:58;2.20;;;0.80;;
8500;SDS011;4288;48.484;10.024;2023-01-16T00:14:25;0.90;;;0.60;;
8500;SDS011;4288;48.484;10.024;2023-01-16T00:16:55;3.50;;;0.70;;
8500;SDS011;4288;48.484;10.024;2023-01-16T00:19:22;1.00;;;0.50;;
8500;SDS011;4288;48.484;10.024;2023-01-16T00:21:49;2.30;;;0.50;;
8500;SDS011;4288;48.484;10.024;2023-01-16T00:24:16;1.10;;;0.60;;
8500;SDS011;4288;48.484;10.024;2023-01-16T00:26:43;1.00;;;0.60;;
8500;SDS011;4288;48.484;10.024;2023-01-16T00:29:12;1.73;;;0.63;;
8500;SDS011;4288;48.484;10.024;2023-01-16T00:31:39;0.70;;;0.63;;
8500;SDS011;4288;48.484;10.024;2023-01-16T00:34:06;3.70;;;0.60;;
8500;SDS011;4288;48.484;10.024;2023-01-16T00:36:33;0.60;;;0.60;;
8500;SDS011;4288;48.484;10.024;2023-01-16T00:39:00;1.03;;;0.63;;
8500;SDS011;4288;48.484;10.024;2023-01-16T00:41:27;2.00;;;0.67;;
8500;SDS011;4288;48.484;10.024;2023-01-16T00:43:54;0.80;;;0.60;;
8500;SDS011;4288;48.484;10.024;2023-01-16T00:46:25;6.20;;;0.60;;
8500;SDS011;4288;48.484;10.024;2023-01-16T00:48:54;0.60;;;0.40;;
8500;SDS011;4288;48.484;10.024;2023-01-16T00:51:21;1.00;;;0.67;;
8500;SDS011;4288;48.484;10.024;2023-01-16T00:53:48;4.37;;;0.60;;
8500;SDS011;4288;48.484;10.024;2023-01-16T00:56:15;5.50;;;1.07;;
8500;SDS011;4288;48.484;10.024;2023-01-16T00:58:42;1.53;;;0.80;;
8500;SDS011;4288;48.484;10.024;2023-01-16T01:01:10;1.30;;;0.97;;
8500;SDS011;4288;48.484;10.024;2023-01-16T01:03:38;3.03;;;0.77;;
8500;SDS011;4288;48.484;10.024;2023-01-16T01:06:06;2.00;;;0.73;;
8500;SDS011;4288;48.484;10.024;2023-01-16T01:08:34;1.23;;;0.60;;
8500;SDS011;4288;48.484;10.024;2023-01-16T01:11:05;0.93;;;0.67;;
8500;SDS011;4288;48.484;10.024;2023-01-16T01:13:33;2.83;;;0.70;;
8500;SDS011;4288;48.484;10.024;2023-01-16T01:16:01;0.60;;;0.60;;
8500;SDS011;4288;48.484;10.024;2023-01-16T01:18:28;2.43;;;0.67;;
8500;SDS011;4288;48.484;10.024;2023-01-16T01:20:56;0.50;;;0.47;;
8500;SDS011;4288;48.484;10.024;2023-01-16T01:23:24;1.13;;;0.40;;
8500;SDS011;4288;48.484;10.024;2023-01-16T01:25:51;1.47;;;0.50;;
8500;SDS011;4288;48.484;10.024;2023-01-16T01:28:18;1.43;;;0.70;;
8500;SDS011;4288;48.484;10.024;2023-01-16T01:30:45;0.50;;;0.50;;
8500;SDS011;4288;48.484;10.024;2023-01-16T01:33:12;3.80;;;0.60;;
8500;SDS011;4288;48.484;10.024;2023-01-16T01:35:39;0.97;;;0.60;;
8500;SDS011;4288;48.484;10.024;2023-01-16T01:38:08;0.70;;;0.60;;
8500;SDS011;4288;48.484;10.024;2023-01-16T01:40:35;1.03;;;0.50;;
8500;SDS011;4288;48.484;10.024;2023-01-16T01:43:02;1.00;;;0.57;;
8500;SDS011;4288;48.484;10.024;2023-01-16T01:45:30;0.87;;;0.50;;
8500;SDS011;4288;48.484;10.024;2023-01-16T01:47:59;0.87;;;0.53;;
8500;SDS011;4288;48.484;10.024;2023-01-16T01:50:34;1.13;;;0.77;;
8500;SDS011;4288;48.484;10.024;2023-01-16T01:53:09;1.63;;;0.63;;
8500;SDS011;4288;48.484;10.024;2023-01-16T01:55:40;0.67;;;0.63;;
8500;SDS011;4288;48.484;10.024;2023-01-16T01:58:10;4.53;;;0.80;;
8500;SDS011;4288;48.484;10.024;2023-01-16T02:00:45;0.60;;;0.60;;
8500;SDS011;4288;48.484;10.024;2023-01-16T02:03:15;2.00;;;0.53;;
8500;SDS011;4288;48.484;10.024;2023-01-16T02:05:51;2.00;;;0.57;;
8500;SDS011;4288;48.484;10.024;2023-01-16T02:08:25;0.93;;;0.50;;
8500;SDS011;4288;48.484;10.024;2023-01-16T02:10:58;1.47;;;0.50;;
8500;SDS011;4288;48.484;10.024;2023-01-16T02:13:30;0.50;;;0.50;;
8500;SDS011;4288;48.484;10.024;2023-01-16T02:15:58;0.50;;;0.50;;
8500;SDS011;4288;48.484;10.024;2023-01-16T02:18:42;2.90;;;0.57;;
8500;SDS011;4288;48.484;10.024;2023-01-16T02:21:36;1.43;;;0.60;;
8500;SDS011;4288;48.484;10.024;2023-01-16T02:24:40;1.40;;;0.77;;
8500;SDS011;4288;48.484;10.024;2023-01-16T02:27:40;1.00;;;0.80;;
8500;SDS011;4288;48.484;10.024;2023-01-16T02:30:31;1.47;;;0.83;;
8500;SDS011;4288;48.484;10.024;2023-01-16T02:33:31;1.97;;;0.97;;
8500;SDS011;4288;48.484;10.024;2023-01-16T02:36:18;3.80;;;0.90;;
8500;SDS011;4288;48.484;10.024;2023-01-16T02:38:58;5.07;;;0.80;;
8500;SDS011;4288;48.484;10.024;2023-01-16T02:41:37;2.10;;;0.70;;
8500;SDS011;4288;48.484;10.024;2023-01-16T02:44:17;3.40;;;0.83;;
8500;SDS011;4288;48.484;10.024;2023-01-16T02:46:58;3.53;;;0.97;;
8500;SDS011;4288;48.484;10.024;2023-01-16T02:49:38;3.90;;;3.60;;
8500;SDS011;4288;48.484;10.024;2023-01-16T02:52:10;3.23;;;1.50;;
8500;SDS011;4288;48.484;10.024;2023-01-16T02:54:44;2.30;;;1.30;;
8500;SDS011;4288;48.484;10.024;2023-01-16T02:57:18;2.47;;;1.07;;
8500;SDS011;4288;48.484;10.024;2023-01-16T02:59:49;1.23;;;0.67;;
8500;SDS011;4288;48.484;10.024;2023-01-16T03:02:18;1.67;;;1.57;;
8500;SDS011;4288;48.484;10.024;2023-01-16T03:04:46;1.20;;;0.80;;
8500;SDS011;4288;48.484;10.024;2023-01-16T03:07:20;2.20;;;0.60;;
8500;SDS011;4288;48.484;10.024;2023-01-16T03:13:18;2.70;;;0.63;;
8500;SDS011;4288;48.484;10.024;2023-01-16T03:16:01;2.10;;;1.10;;
8500;SDS011;4288;48.484;10.024;2023-01-16T03:18:44;7.20;;;1.20;;
8500;SDS011;4288;48.484;10.024;2023-01-16T03:21:19;3.80;;;0.70;;
8500;SDS011;4288;48.484;10.024;2023-01-16T03:24:03;2.17;;;0.60;;
8500;SDS011;4288;48.484;10.024;2023-01-16T03:26:41;3.13;;;0.97;;
8500;SDS011;4288;48.484;10.024;2023-01-16T03:29:14;1.50;;;0.87;;
8500;SDS011;4288;48.484;10.024;2023-01-16T03:31:55;1.07;;;0.70;;
8500;SDS011;4288;48.484;10.024;2023-01-16T03:34:31;1.57;;;0.80;;
8500;SDS011;4288;48.484;10.024;2023-01-16T03:37:05;4.23;;;0.73;;
8500;SDS011;4288;48.484;10.024;2023-01-16T03:39:38;1.77;;;0.50;;
8500;SDS011;4288;48.484;10.024;2023-01-16T03:42:10;4.87;;;0.90;;
8500;SDS011;4288;48.484;10.024;2023-01-16T03:44:42;2.20;;;0.80;;
8500;SDS011;4288;48.484;10.024;2023-01-16T03:47:18;1.23;;;0.60;;
8500;SDS011;4288;48.484;10.024;2023-01-16T03:49:51;0.50;;;0.50;;
8500;SDS011;4288;48.484;10.024;2023-01-16T03:52:25;0.60;;;0.60;;
8500;SDS011;4288;48.484;10.024;2023-01-16T03:55:01;2.73;;;0.60;;
8500;SDS011;4288;48.484;10.024;2023-01-16T03:57:34;1.13;;;0.60;;
8500;SDS011;4288;48.484;10.024;2023-01-16T04:00:06;1.33;;;0.80;;
8500;SDS011;4288;48.484;10.024;2023-01-16T04:02:37;0.40;;;0.40;;
8500;SDS011;4288;48.484;10.024;2023-01-16T04:05:14;1.70;;;0.97;;
8500;SDS011;4288;48.484;10.024;2023-01-16T04:07:45;1.00;;;0.53;;
8500;SDS011;4288;48.484;10.024;2023-01-16T04:10:17;0.70;;;0.70;;
8500;SDS011;4288;48.484;10.024;2023-01-16T04:12:51;0.83;;;0.67;;
8500;SDS011;4288;48.484;10.024;2023-01-16T04:15:21;2.07;;;1.00;;
8500;SDS011;4288;48.484;10.024;2023-01-16T04:17:51;1.70;;;0.93;;
8500;SDS011;4288;48.484;10.024;2023-01-16T04:20:21;4.10;;;1.00;;
8500;SDS011;4288;48.484;10.024;2023-01-16T04:22:49;0.77;;;0.60;;
8500;SDS011;4288;48.484;10.024;2023-01-16T04:25:17;0.83;;;0.70;;
8500;SDS011;4288;48.484;10.024;2023-01-16T04:27:45;1.00;;;0.60;;
8500;SDS011;4288;48.484;10.024;2023-01-16T04:30:12;2.93;;;0.60;;
8500;SDS011;4288;48.484;10.024;2023-01-16T04:32:40;0.73;;;0.60;;
8500;SDS011;4288;48.484;10.024;2023-01-16T04:35:09;0.93;;;0.90;;
8500;SDS011;4288;48.484;10.024;2023-01-16T04:37:38;0.70;;;0.70;;
8500;SDS011;4288;48.484;10.024;2023-01-16T04:40:06;2.10;;;0.80;;
8500;SDS011;4288;48.484;10.024;2023-01-16T04:42:34;1.80;;;0.53;;
8500;SDS011;4288;48.484;10.024;2023-01-16T04:45:02;3.13;;;0.67;;
8500;SDS011;4288;48.484;10.024;2023-01-16T04:47:30;5.23;;;0.97;;
8500;SDS011;4288;48.484;10.024;2023-01-16T04:49:57;0.80;;;0.80;;
8500;SDS011;4288;48.484;10.024;2023-01-16T04:52:24;1.63;;;0.63;;
8500;SDS011;4288;48.484;10.024;2023-01-16T04:54:53;0.70;;;0.60;;
8500;SDS011;4288;48.484;10.024;2023-01-16T04:57:20;1.63;;;0.90;;
8500;SDS011;4288;48.484;10.024;2023-01-16T04:59:47;5.63;;;1.37;;
8500;SDS011;4288;48.484;10.024;2023-01-16T05:02:14;8.73;;;1.00;;
8500;SDS011;4288;48.484;10.024;2023-01-16T05:04:41;0.87;;;0.80;;
8500;SDS011;4288;48.484;10.024;2023-01-16T05:07:08;2.23;;;0.90;;
8500;SDS011;4288;48.484;10.024;2023-01-16T05:09:35;0.93;;;0.70;;
8500;SDS011;4288;48.484;10.024;2023-01-16T05:12:04;1.43;;;0.83;;
8500;SDS011;4288;48.484;10.024;2023-01-16T05:14:32;3.83;;;0.97;;
8500;SDS011;4288;48.484;10.024;2023-01-16T05:16:59;2.00;;;1.23;;
8500;SDS011;4288;48.484;10.024;2023-01-16T05:19:26;1.70;;;1.30;;
8500;SDS011;4288;48.484;10.024;2023-01-16T05:21:53;2.50;;;1.10;;
8500;SDS011;4288;48.484;10.024;2023-01-16T05:24:20;1.70;;;1.00;;
8500;SDS011;4288;48.484;10.024;2023-01-16T05:26:47;2.00;;;1.30;;
8500;SDS011;4288;48.484;10.024;2023-01-16T05:29:15;1.90;;;1.53;;
8500;SDS011;4288;48.484;10.024;2023-01-16T05:31:42;1.70;;;1.40;;
8500;SDS011;4288;48.484;10.024;2023-01-16T05:34:10;5.70;;;2.10;;
8500;SDS011;4288;48.484;10.024;2023-01-16T05:36:37;3.03;;;1.87;;
8500;SDS011;4288;48.484;10.024;2023-01-16T05:39:04;3.40;;;2.13;;
8500;SDS011;4288;48.484;10.024;2023-01-16T05:41:31;3.10;;;2.80;;
8500;SDS011;4288;48.484;10.024;2023-01-16T05:43:58;4.80;;;2.90;;
8500;SDS011;4288;48.484;10.024;2023-01-16T05:46:26;3.60;;;3.00;;
8500;SDS011;4288;48.484;10.024;2023-01-16T05:48:54;3.97;;;2.63;;
8500;SDS011;4288;48.484;10.024;2023-01-16T05:51:21;11.43;;;3.30;;
8500;SDS011;4288;48.484;10.024;2023-01-16T05:53:49;11.80;;;3.63;;
8500;SDS011;4288;48.484;10.024;2023-01-16T05:56:16;4.27;;;2.33;;
8500;SDS011;4288;48.484;10.024;2023-01-16T05:58:46;4.37;;;2.53;;
8500;SDS011;4288;48.484;10.024;2023-01-16T06:01:13;2.47;;;1.90;;
8500;SDS011;4288;48.484;10.024;2023-01-16T06:03:42;3.13;;;1.73;;
8500;SDS011;4288;48.484;10.024;2023-01-16T06:06:09;1.90;;;1.60;;
8500;SDS011;4288;48.484;10.024;2023-01-16T06:08:36;3.43;;;1.30;;
8500;SDS011;4288;48.484;10.024;2023-01-16T06:11:03;1.90;;;1.50;;
8500;SDS011;4288;48.484;10.024;2023-01-16T06:13:30;4.27;;;1.10;;
8500;SDS011;4288;48.484;10.024;2023-01-16T06:15:57;2.80;;;1.03;;
8500;SDS011;4288;48.484;10.024;2023-01-16T06:18:24;1.00;;;0.83;;
8500;SDS011;4288;48.484;10.024;2023-01-16T06:20:53;3.23;;;1.00;;
8500;SDS011;4288;48.484;10.024;2023-01-16T06:23:20;3.67;;;1.10;;
8500;SDS011;4288;48.484;10.024;2023-01-16T06:25:48;1.10;;;1.00;;
8500;SDS011;4288;48.484;10.024;2023-01-16T06:28:15;1.87;;;1.37;;
8500;SDS011;4288;48.484;10.024;2023-01-16T06:30:42;1.27;;;1.17;;
8500;SDS011;4288;48.484;10.024;2023-01-16T06:33:09;3.27;;;1.80;;
8500;SDS011;4288;48.484;10.024;2023-01-16T06:35:36;1.27;;;1.10;;
8500;SDS011;4288;48.484;10.024;2023-01-16T06:38:05;4.10;;;1.00;;
8500;SDS011;4288;48.484;10.024;2023-01-16T06:40:32;1.50;;;1.40;;
8500;SDS011;4288;48.484;10.024;2023-01-16T06:42:59;3.07;;;0.90;;
8500;SDS011;4288;48.484;10.024;2023-01-16T06:45:26;2.20;;;1.30;;
8500;SDS011;4288;48.484;10.024;2023-01-16T06:47:53;0.90;;;0.90;;
8500;SDS011;4288;48.484;10.024;2023-01-16T06:50:20;1.10;;;0.80;;
8500;SDS011;4288;48.484;10.024;2023-01-16T06:52:48;5.30;;;0.90;;
8500;SDS011;4288;48.484;10.024;2023-01-16T06:55:16;1.87;;;1.13;;
8500;SDS011;4288;48.484;10.024;2023-01-16T06:57:43;0.87;;;0.87;;
8500;SDS011;4288;48.484;10.024;2023-01-16T07:00:11;3.80;;;2.53;;
8500;SDS011;4288;48.484;10.024;2023-01-16T07:02:39;9.23;;;3.93;;
8500;SDS011;4288;48.484;10.024;2023-01-16T07:05:07;14.43;;;4.73;;
8500;SDS011;4288;48.484;10.024;2023-01-16T07:07:35;11.60;;;3.93;;
8500;SDS011;4288;48.484;10.024;2023-01-16T07:10:03;9.27;;;3.90;;
8500;SDS011;4288;48.484;10.024;2023-01-16T07:12:32;7.63;;;3.20;;
8500;SDS011;4288;48.484;10.024;2023-01-16T07:14:59;12.47;;;4.00;;
8500;SDS011;4288;48.484;10.024;2023-01-16T07:17:44;4.20;;;3.10;;
8500;SDS011;4288;48.484;10.024;2023-01-16T07:20:28;8.07;;;3.63;;
8500;SDS011;4288;48.484;10.024;2023-01-16T07:23:14;3.00;;;2.67;;
8500;SDS011;4288;48.484;10.024;2023-01-16T07:25:46;8.13;;;3.20;;
8500;SDS011;4288;48.484;10.024;2023-01-16T07:28:17;8.33;;;3.07;;
8500;SDS011;4288;48.484;10.024;2023-01-16T07:30:45;5.67;;;4.10;;
8500;SDS011;4288;48.484;10.024;2023-01-16T07:33:14;5.33;;;3.50;;
8500;SDS011;4288;48.484;10.024;2023-01-16T07:35:41;3.53;;;3.13;;
8500;SDS011;4288;48.484;10.024;2023-01-16T07:38:10;6.43;;;4.77;;
8500;SDS011;4288;48.484;10.024;2023-01-16T07:40:37;8.00;;;6.13;;
8500;SDS011;4288;48.484;10.024;2023-01-16T07:43:04;7.03;;;4.67;;
8500;SDS011;4288;48.484;10.024;2023-01-16T07:45:33;12.87;;;9.60;;
8500;SDS011;4288;48.484;10.024;2023-01-16T07:48:00;12.97;;;8.30;;
8500;SDS011;4288;48.484;10.024;2023-01-16T07:50:27;10.07;;;6.47;;
8500;SDS011;4288;48.484;10.024;2023-01-16T07:52:54;8.37;;;4.10;;
8500;SDS011;4288;48.484;10.024;2023-01-16T07:55:21;6.90;;;3.17;;
8500;SDS011;4288;48.484;10.024;2023-01-16T07:57:49;8.63;;;3.07;;
8500;SDS011;4288;48.484;10.024;2023-01-16T08:00:16;7.90;;;2.23;;
8500;SDS011;4288;48.484;10.024;2023-01-16T08:02:45;7.10;;;1.60;;
8500;SDS011;4288;48.484;10.024;2023-01-16T08:05:12;2.80;;;2.03;;
8500;SDS011;4288;48.484;10.024;2023-01-16T08:07:39;2.57;;;1.93;;
8500;SDS011;4288;48.484;10.024;2023-01-16T08:10:07;6.13;;;2.90;;
8500;SDS011;4288;48.484;10.024;2023-01-16T08:12:36;9.57;;;4.10;;
8500;SDS011;4288;48.484;10.024;2023-01-16T08:15:04;12.20;;;5.70;;
8500;SDS011;4288;48.484;10.024;2023-01-16T08:17:32;6.47;;;3.23;;
8500;SDS011;4288;48.484;10.024;2023-01-16T08:20:01;5.03;;;3.00;;
8500;SDS011;4288;48.484;10.024;2023-01-16T08:22:28;5.77;;;2.73;;
8500;SDS011;4288;48.484;10.024;2023-01-16T08:24:55;2.83;;;1.87;;
8500;SDS011;4288;48.484;10.024;2023-01-16T08:27:22;3.00;;;2.23;;
8500;SDS011;4288;48.484;10.024;2023-01-16T08:29:49;7.90;;;4.03;;
8500;SDS011;4288;48.484;10.024;2023-01-16T08:32:16;4.60;;;2.77;;
8500;SDS011;4288;48.484;10.024;2023-01-16T08:34:43;4.47;;;2.60;;
8500;SDS011;4288;48.484;10.024;2023-01-16T08:37:12;5.03;;;3.83;;
8500;SDS011;4288;48.484;10.024;2023-01-16T08:39:40;4.57;;;2.40;;
8500;SDS011;4288;48.484;10.024;2023-01-16T08:42:07;5.30;;;3.03;;
8500;SDS011;4288;48.484;10.024;2023-01-16T08:44:51;3.87;;;2.40;;
8500;SDS011;4288;48.484;10.024;2023-01-16T08:47:36;3.17;;;1.70;;
8500;SDS011;4288;48.484;10.024;2023-01-16T08:50:21;3.97;;;2.37;;
8500;SDS011;4288;48.484;10.024;2023-01-16T08:53:07;3.53;;;2.03;;
8500;SDS011;4288;48.484;10.024;2023-01-16T08:55:34;2.60;;;1.97;;
8500;SDS011;4288;48.484;10.024;2023-01-16T08:58:03;6.20;;;2.27;;
8500;SDS011;4288;48.484;10.024;2023-01-16T09:00:31;6.83;;;2.20;;
8500;SDS011;4288;48.484;10.024;2023-01-16T09:02:59;7.73;;;3.90;;
8500;SDS011;4288;48.484;10.024;2023-01-16T09:05:27;9.40;;;4.00;;
8500;SDS011;4288;48.484;10.024;2023-01-16T09:07:54;4.97;;;3.20;;
8500;SDS011;4288;48.484;10.024;2023-01-16T09:10:23;5.23;;;3.03;;
8500;SDS011;4288;48.484;10.024;2023-01-16T09:12:50;9.13;;;4.13;;
8500;SDS011;4288;48.484;10.024;2023-01-16T09:15:35;5.30;;;2.60;;
8500;SDS011;4288;48.484;10.024;2023-01-16T09:18:02;4.17;;;2.63;;
8500;SDS011;4288;48.484;10.024;2023-01-16T09:20:29;4.20;;;2.00;;
8500;SDS011;4288;48.484;10.024;2023-01-16T09:22:56;4.10;;;1.90;;
8500;SDS011;4288;48.484;10.024;2023-01-16T09:25:26;4.43;;;1.90;;
8500;SDS011;4288;48.484;10.024;2023-01-16T09:27:53;5.07;;;2.37;;
8500;SDS011;4288;48.484;10.024;2023-01-16T09:30:20;4.90;;;1.90;;
8500;SDS011;4288;48.484;10.024;2023-01-16T09:32:48;1.60;;;1.40;;
8500;SDS011;4288;48.484;10.024;2023-01-16T09:35:15;4.30;;;1.60;;
8500;SDS011;4288;48.484;10.024;2023-01-16T09:37:42;6.67;;;1.80;;
8500;SDS011;4288;48.484;10.024;2023-01-16T09:40:11;1.93;;;1.30;;
8500;SDS011;4288;48.484;10.024;2023-01-16T09:42:55;1.60;;;1.43;;
8500;SDS011;4288;48.484;10.024;2023-01-16T09:45:56;5.40;;;1.63;;
8500;SDS011;4288;48.484;10.024;2023-01-16T09:48:28;3.73;;;2.13;;
8500;SDS011;4288;48.484;10.024;2023-01-16T09:51:00;5.43;;;2.20;;
8500;SDS011;4288;48.484;10.024;2023-01-16T09:53:37;4.53;;;2.07;;
8500;SDS011;4288;48.484;10.024;2023-01-16T09:56:27;2.03;;;1.27;;
8500;SDS011;4288;48.484;10.024;2023-01-16T09:59:20;5.50;;;1.63;;
8500;SDS011;4288;48.484;10.024;2023-01-16T10:01:59;1.23;;;1.13;;
8500;SDS011;4288;48.484;10.024;2023-01-16T10:04:42;1.70;;;1.30;;
8500;SDS011;4288;48.484;10.024;2023-01-16T10:07:27;1.67;;;1.40;;
8500;SDS011;4288;48.484;10.024;2023-01-16T10:10:19;3.70;;;1.50;;
8500;SDS011;4288;48.484;10.024;2023-01-16T10:16:11;3.33;;;1.10;;
8500;SDS011;4288;48.484;10.024;2023-01-16T10:18:51;5.43;;;1.07;;
8500;SDS011;4288;48.484;10.024;2023-01-16T10:21:28;3.30;;;1.00;;
8500;SDS011;4288;48.484;10.024;2023-01-16T10:24:19;2.70;;;1.27;;
8500;SDS011;4288;48.484;10.024;2023-01-16T10:27:00;7.97;;;1.00;;
8500;SDS011;4288;48.484;10.024;2023-01-16T10:29:35;1.67;;;1.00;;
8500;SDS011;4288;48.484;10.024;2023-01-16T10:32:10;1.90;;;0.90;;
8500;SDS011;4288;48.484;10.024;2023-01-16T10:34:47;2.53;;;0.73;;
8500;SDS011;4288;48.484;10.024;2023-01-16T10:37:25;1.33;;;1.00;;
8500;SDS011;4288;48.484;10.024;2023-01-16T10:39:52;2.90;;;1.40;;
8500;SDS011;4288;48.484;10.024;2023-01-16T10:42:22;1.40;;;1.27;;
8500;SDS011;4288;48.484;10.024;2023-01-16T10:45:12;1.83;;;1.03;;
8500;SDS011;4288;48.484;10.024;2023-01-16T10:48:00;1.70;;;0.90;;
8500;SDS011;4288;48.484;10.024;2023-01-16T10:50:45;4.03;;;1.00;;
8500;SDS011;4288;48.484;10.024;2023-01-16T10:53:14;2.30;;;0.83;;
8500;SDS011;4288;48.484;10.024;2023-01-16T10:55:42;1.20;;;1.10;;
8500;SDS011;4288;48.484;10.024;2023-01-16T10:58:17;2.23;;;1.10;;
8500;SDS011;4288;48.484;10.024;2023-01-16T11:00:52;1.53;;;0.90;;
8500;SDS011;4288;48.484;10.024;2023-01-16T11:03:26;2.20;;;0.80;;
8500;SDS011;4288;48.484;10.024;2023-01-16T11:06:10;2.37;;;1.17;;
8500;SDS011;4288;48.484;10.024;2023-01-16T11:08:40;1.13;;;0.90;;
8500;SDS011;4288;48.484;10.024;2023-01-16T11:11:10;1.17;;;0.90;;
8500;SDS011;4288;48.484;10.024;2023-01-16T11:13:57;2.90;;;1.83;;
8500;SDS011;4288;48.484;10.024;2023-01-16T11:16:43;2.50;;;1.50;;
8500;SDS011;4288;48.484;10.024;2023-01-16T11:19:29;2.40;;;1.10;;
8500;SDS011;4288;48.484;10.024;2023-01-16T11:22:20;2.03;;;1.53;;
8500;SDS011;4288;48.484;10.024;2023-01-16T11:24:53;1.17;;;1.00;;
8500;SDS011;4288;48.484;10.024;2023-01-16T11:27:24;1.93;;;0.90;;
8500;SDS011;4288;48.484;10.024;2023-01-16T11:29:55;3.50;;;1.20;;
8500;SDS011;4288;48.484;10.024;2023-01-16T11:32:23;1.20;;;0.87;;
8500;SDS011;4288;48.484;10.024;2023-01-16T11:34:55;2.73;;;1.00;;
8500;SDS011;4288;48.484;10.024;2023-01-16T11:37:24;1.10;;;0.80;;
8500;SDS011;4288;48.484;10.024;2023-01-16T11:39:55;3.60;;;1.00;;
8500;SDS011;4288;48.484;10.024;2023-01-16T11:42:30;6.47;;;0.80;;
8500;SDS011;4288;48.484;10.024;2023-01-16T11:45:17;2.47;;;0.90;;
8500;SDS011;4288;48.484;10.024;2023-01-16T11:48:06;1.60;;;0.90;;
8500;SDS011;4288;48.484;10.024;2023-01-16T11:50:50;1.10;;;1.00;;
8500;SDS011;4288;48.484;10.024;2023-01-16T11:53:18;1.13;;;1.00;;
8500;SDS011;4288;48.484;10.024;2023-01-16T11:55:49;1.30;;;0.80;;
8500;SDS011;4288;48.484;10.024;2023-01-16T11:58:46;9.03;;;1.60;;
8500;SDS011;4288;48.484;10.024;2023-01-16T12:01:32;2.33;;;1.17;;
8500;SDS011;4288;48.484;10.024;2023-01-16T12:04:33;4.50;;;1.17;;
8500;SDS011;4288;48.484;10.024;2023-01-16T12:07:05;6.73;;;0.80;;
8500;SDS011;4288;48.484;10.024;2023-01-16T12:09:43;1.53;;;0.90;;
8500;SDS011;4288;48.484;10.024;2023-01-16T12:12:23;1.57;;;0.70;;
8500;SDS011;4288;48.484;10.024;2023-01-16T12:15:18;1.43;;;0.70;;
8500;SDS011;4288;48.484;10.024;2023-01-16T12:17:56;1.87;;;0.80;;
8500;SDS011;4288;48.484;10.024;2023-01-16T12:20:41;2.90;;;1.00;;
8500;SDS011;4288;48.484;10.024;2023-01-16T12:26:29;3.20;;;1.80;;
8500;SDS011;4288;48.484;10.024;2023-01-16T12:29:05;6.77;;;3.03;;
8500;SDS011;4288;48.484;10.024;2023-01-16T12:35:06;9.40;;;4.30;;
8500;SDS011;4288;48.484;10.024;2023-01-16T12:38:10;5.60;;;3.57;;
8500;SDS011;4288;48.484;10.024;2023-01-16T12:41:04;18.43;;;4.43;;
8500;SDS011;4288;48.484;10.024;2023-01-16T12:44:27;11.20;;;4.43;;
8500;SDS011;4288;48.484;10.024;2023-01-16T12:47:17;7.77;;;3.53;;
8500;SDS011;4288;48.484;10.024;2023-01-16T12:50:10;8.23;;;3.37;;
8500;SDS011;4288;48.484;10.024;2023-01-16T12:52:54;4.83;;;3.30;;
8500;SDS011;4288;48.484;10.024;2023-01-16T12:55:38;6.03;;;3.87;;
8500;SDS011;4288;48.484;10.024;2023-01-16T12:58:13;4.63;;;2.67;;
8500;SDS011;4288;48.484;10.024;2023-01-16T13:00:45;7.30;;;3.90;;
8500;SDS011;4288;48.484;10.024;2023-01-16T13:03:20;3.80;;;2.47;;
8500;SDS011;4288;48.484;10.024;2023-01-16T13:05:55;4.03;;;1.87;;
8500;SDS011;4288;48.484;10.024;2023-01-16T13:08:25;1.13;;;1.03;;
8500;SDS011;4288;48.484;10.024;2023-01-16T13:10:59;0.70;;;0.67;;
8500;SDS011;4288;48.484;10.024;2023-01-16T13:13:52;0.97;;;0.50;;
8500;SDS011;4288;48.484;10.024;2023-01-16T13:16:25;0.80;;;0.53;;
8500;SDS011;4288;48.484;10.024;2023-01-16T13:18:58;1.07;;;0.50;;
8500;SDS011;4288;48.484;10.024;2023-01-16T13:21:30;1.80;;;0.57;;
8500;SDS011;4288;48.484;10.024;2023-01-16T13:24:05;1.53;;;0.57;;
8500;SDS011;4288;48.484;10.024;2023-01-16T13:26:40;0.50;;;0.50;;
8500;SDS011;4288;48.484;10.024;2023-01-16T13:29:13;0.57;;;0.57;;
8500;SDS011;4288;48.484;10.024;2023-01-16T13:31:47;1.37;;;0.80;;
8500;SDS011;4288;48.484;10.024;2023-01-16T13:34:20;0.50;;;0.50;;
8500;SDS011;4288;48.484;10.024;2023-01-16T13:43:17;0.80;;;0.70;;
8500;SDS011;4288;48.484;10.024;2023-01-16T13:46:08;0.60;;;0.60;;
8500;SDS011;4288;48.484;10.024;2023-01-16T13:48:36;0.90;;;0.60;;
8500;SDS011;4288;48.484;10.024;2023-01-16T13:51:07;2.20;;;1.00;;
8500;SDS011;4288;48.484;10.024;2023-01-16T13:53:39;2.30;;;1.70;;
8500;SDS011;4288;48.484;10.024;2023-01-16T13:56:12;2.30;;;1.30;;
8500;SDS011;4288;48.484;10.024;2023-01-16T13:58:43;1.80;;;1.00;;
8500;SDS011;4288;48.484;10.024;2023-01-16T14:04:28;2.20;;;1.43;;
8500;SDS011;4288;48.484;10.024;2023-01-16T14:06:58;2.13;;;1.00;;
8500;SDS011;4288;48.484;10.024;2023-01-16T14:10:16;1.43;;;1.10;;
8500;SDS011;4288;48.484;10.024;2023-01-16T14:15:43;1.10;;;0.90;;
8500;SDS011;4288;48.484;10.024;2023-01-16T14:18:38;2.83;;;1.57;;
8500;SDS011;4288;48.484;10.024;2023-01-16T14:21:10;2.20;;;1.30;;
8500;SDS011;4288;48.484;10.024;2023-01-16T14:23:44;1.73;;;1.63;;
8500;SDS011;4288;48.484;10.024;2023-01-16T14:26:33;1.30;;;1.00;;
8500;SDS011;4288;48.484;10.024;2023-01-16T14:29:19;4.63;;;1.70;;
8500;SDS011;4288;48.484;10.024;2023-01-16T14:31:53;3.83;;;1.87;;
8500;SDS011;4288;48.484;10.024;2023-01-16T14:34:25;2.40;;;1.57;;
8500;SDS011;4288;48.484;10.024;2023-01-16T14:36:55;2.63;;;1.50;;
8500;SDS011;4288;48.484;10.024;2023-01-16T14:39:32;4.77;;;1.40;;
8500;SDS011;4288;48.484;10.024;2023-01-16T14:42:03;2.70;;;1.87;;
8500;SDS011;4288;48.484;10.024;2023-01-16T14:44:58;2.77;;;1.50;;
8500;SDS011;4288;48.484;10.024;2023-01-16T14:48:09;2.80;;;1.33;;
8500;SDS011;4288;48.484;10.024;2023-01-16T14:51:17;1.33;;;1.03;;
8500;SDS011;4288;48.484;10.024;2023-01-16T14:54:15;7.77;;;2.47;;
8500;SDS011;4288;48.484;10.024;2023-01-16T14:57:06;12.23;;;1.63;;
8500;SDS011;4288;48.484;10.024;2023-01-16T14:59:39;4.60;;;1.50;;
8500;SDS011;4288;48.484;10.024;2023-01-16T15:02:11;1.57;;;1.10;;
8500;SDS011;4288;48.484;10.024;2023-01-16T15:04:46;2.90;;;1.73;;
8500;SDS011;4288;48.484;10.024;2023-01-16T15:07:25;6.10;;;2.13;;
8500;SDS011;4288;48.484;10.024;2023-01-16T15:09:59;5.10;;;1.87;;
8500;SDS011;4288;48.484;10.024;2023-01-16T15:12:37;1.93;;;1.17;;
8500;SDS011;4288;48.484;10.024;2023-01-16T15:15:18;0.80;;;0.80;;
8500;SDS011;4288;48.484;10.024;2023-01-16T15:17:48;5.83;;;1.87;;
8500;SDS011;4288;48.484;10.024;2023-01-16T15:20:37;3.63;;;2.10;;
8500;SDS011;4288;48.484;10.024;2023-01-16T15:23:26;4.10;;;0.90;;
8500;SDS011;4288;48.484;10.024;2023-01-16T15:28:59;1.40;;;1.10;;
8500;SDS011;4288;48.484;10.024;2023-01-16T15:31:55;1.60;;;1.30;;
8500;SDS011;4288;48.484;10.024;2023-01-16T15:34:26;0.90;;;0.73;;
8500;SDS011;4288;48.484;10.024;2023-01-16T15:36:55;1.60;;;1.10;;
8500;SDS011;4288;48.484;10.024;2023-01-16T15:39:30;1.17;;;0.80;;
8500;SDS011;4288;48.484;10.024;2023-01-16T15:42:07;2.57;;;0.93;;
8500;SDS011;4288;48.484;10.024;2023-01-16T15:44:57;1.30;;;0.90;;
8500;SDS011;4288;48.484;10.024;2023-01-16T15:48:00;1.63;;;1.53;;
8500;SDS011;4288;48.484;10.024;2023-01-16T15:50:48;1.17;;;0.60;;
8500;SDS011;4288;48.484;10.024;2023-01-16T15:53:20;2.20;;;1.30;;
8500;SDS011;4288;48.484;10.024;2023-01-16T15:55:54;4.70;;;1.70;;
8500;SDS011;4288;48.484;10.024;2023-01-16T15:58:27;3.60;;;0.97;;
8500;SDS011;4288;48.484;10.024;2023-01-16T16:00:55;1.87;;;1.37;;
8500;SDS011;4288;48.484;10.024;2023-01-16T16:03:27;23.07;;;4.27;;
8500;SDS011;4288;48.484;10.024;2023-01-16T16:05:58;1.70;;;1.10;;
8500;SDS011;4288;48.484;10.024;2023-01-16T16:08:30;6.80;;;2.47;;
8500;SDS011;4288;48.484;10.024;2023-01-16T16:11:03;6.50;;;2.60;;